Time;durP1;ratioP1;P1;durP2;ratioP2;P2;SDS_P1;SDS_P2;PMS_P1;PMS_P2;Temp;Humidity;BMP_temperature;BMP_pressure;BME280_temperature;BME280_humidity;BME280_pressure;Samples;Min_cycle;Max_cycle;Signal;HPM_P1;HPM_P2
2021/03/21 00:01:05;;;;;;;;;;;7.90;64.30;;;;;;5091440;28;19925;-69
2021/03/21 00:03:31;;;;;;;;;;;8.00;64.00;;;;;;5083816;28;19924;-70
2021/03/21 00:05:58;;;;;;;;;;;8.00;63.90;;;;;;5086625;28;19957;-70
2021/03/21 00:08:25;;;;;;;;;;;8.00;64.10;;;;;;5089622;28;19982;-69
2021/03/21 00:10:53;;;;;;;;;;;8.00;64.40;;;;;;5095904;28;19924;-70
2021/03/21 00:13:20;;;;;;;;;;;8.00;65.20;;;;;;5093667;28;19951;-70
2021/03/21 00:15:47;;;;;;;;;;;8.00;65.40;;;;;;5095882;28;19934;-70
2021/03/21 00:18:15;;;;;;;;;;;8.00;65.50;;;;;;5095875;28;19924;-70
2021/03/21 00:20:41;;;;;;;;;;;8.00;65.60;;;;;;5088082;28;19934;-70
2021/03/21 00:23:08;;;;;;;;;;;8.10;65.60;;;;;;5085994;28;20050;-70
2021/03/21 00:25:35;;;;;;;;;;;8.10;65.80;;;;;;5087885;28;20017;-70
2021/03/21 00:28:03;;;;;;;;;;;8.10;66.70;;;;;;5090972;28;19925;-70
2021/03/21 00:30:30;;;;;;;;;;;8.10;67.40;;;;;;5077950;28;19928;-70
2021/03/21 00:32:57;;;;;;;;;;;8.20;68.00;;;;;;5095155;28;20302;-70
2021/03/21 00:35:24;;;;;;;;;;;8.10;68.20;;;;;;5083590;28;19932;-70
2021/03/21 00:37:53;;;;;;;;;;;8.10;68.60;;;;;;5093800;28;19957;-70
2021/03/21 00:40:19;;;;;;;;;;;8.10;69.20;;;;;;5094233;28;19939;-70
2021/03/21 00:42:46;;;;;;;;;;;8.10;69.50;;;;;;5094883;28;19984;-71
2021/03/21 00:45:15;;;;;;;;;;;8.00;69.90;;;;;;5094195;28;20007;-70
2021/03/21 00:47:41;;;;;;;;;;;7.90;70.50;;;;;;5094707;28;20338;-70
2021/03/21 00:50:10;;;;;;;;;;;7.90;70.70;;;;;;5095122;28;20031;-70
2021/03/21 00:52:36;;;;;;;;;;;7.90;71.30;;;;;;5095755;28;19924;-70
2021/03/21 00:55:03;;;;;;;;;;;7.90;72.30;;;;;;5094780;28;19934;-70
2021/03/21 00:57:29;;;;;;;;;;;7.90;73.70;;;;;;5095199;28;20140;-70
2021/03/21 00:59:55;;;;;;;;;;;7.90;74.70;;;;;;5095185;28;20247;-70
2021/03/21 01:02:23;;;;;;;;;;;7.90;76.20;;;;;;5095144;28;19924;-70
2021/03/21 01:04:49;;;;;;;;;;;7.90;77.40;;;;;;5092924;28;19924;-71
2021/03/21 01:07:16;;;;;;;;;;;7.90;78.00;;;;;;5089405;28;19924;-70
2021/03/21 01:09:42;;;;;;;;;;;8.00;78.80;;;;;;5066543;28;20016;-70
2021/03/21 01:12:08;;;;;;;;;;;8.00;79.70;;;;;;5074492;28;19962;-70
2021/03/21 01:14:35;;;;;;;;;;;8.00;79.70;;;;;;5074860;28;19934;-70
2021/03/21 01:17:01;;;;;;;;;;;7.90;80.30;;;;;;5073670;28;20313;-70
2021/03/21 01:19:29;;;;;;;;;;;7.90;80.90;;;;;;5074656;28;20338;-70
2021/03/21 01:21:57;;;;;;;;;;;8.00;81.90;;;;;;5073912;28;19946;-71
2021/03/21 01:24:24;;;;;;;;;;;8.00;82.70;;;;;;5074339;28;20021;-69
2021/03/21 01:26:51;;;;;;;;;;;7.90;83.60;;;;;;5073972;28;20273;-69
2021/03/21 01:29:18;;;;;;;;;;;7.90;84.70;;;;;;5074126;28;19985;-69
2021/03/21 01:31:44;;;;;;;;;;;7.90;85.60;;;;;;5074132;28;20082;-69
2021/03/21 01:34:11;;;;;;;;;;;7.90;86.20;;;;;;5073971;28;20007;-70
2021/03/21 01:36:39;;;;;;;;;;;7.90;87.50;;;;;;5066755;28;19925;-70
2021/03/21 01:39:07;;;;;;;;;;;7.90;88.50;;;;;;5073483;28;19934;-70
2021/03/21 01:41:34;;;;;;;;;;;7.90;89.10;;;;;;5074036;28;19925;-69
2021/03/21 01:44:01;;;;;;;;;;;7.90;89.80;;;;;;5073480;28;19996;-69
2021/03/21 01:46:29;;;;;;;;;;;7.90;90.40;;;;;;5074364;28;20010;-69
2021/03/21 01:48:57;;;;;;;;;;;7.90;90.60;;;;;;5073770;28;20011;-70
2021/03/21 01:51:29;;;;;;;;;;;7.80;91.20;;;;;;5074196;28;20410;-69
2021/03/21 01:53:59;;;;;;;;;;;7.80;91.50;;;;;;5073886;28;19925;-69
2021/03/21 01:56:26;;;;;;;;;;;7.70;91.80;;;;;;5073788;28;19989;-70
2021/03/21 01:58:55;;;;;;;;;;;7.70;92.30;;;;;;5069625;28;20006;-70
2021/03/21 02:01:25;;;;;;;;;;;7.70;92.60;;;;;;5073634;28;19925;-70
2021/03/21 02:03:51;;;;;;;;;;;7.70;93.10;;;;;;5074115;28;20001;-70
2021/03/21 02:06:22;;;;;;;;;;;7.70;93.30;;;;;;5069803;28;19997;-69
2021/03/21 02:08:51;;;;;;;;;;;7.70;93.70;;;;;;5073584;28;19935;-70
2021/03/21 02:11:23;;;;;;;;;;;7.60;93.90;;;;;;5076881;28;20010;-70
2021/03/21 02:13:56;;;;;;;;;;;7.70;94.60;;;;;;5092424;28;20403;-70
2021/03/21 02:16:25;;;;;;;;;;;7.70;94.90;;;;;;5093666;28;21189;-70
2021/03/21 02:18:57;;;;;;;;;;;7.70;95.40;;;;;;5085578;28;19924;-70
2021/03/21 02:21:27;;;;;;;;;;;7.60;95.60;;;;;;5093609;28;20413;-70
2021/03/21 02:24:04;;;;;;;;;;;7.60;95.90;;;;;;5093716;28;19924;-70
2021/03/21 02:26:41;;;;;;;;;;;7.60;96.20;;;;;;5093464;28;19988;-70
2021/03/21 02:29:22;;;;;;;;;;;7.60;96.60;;;;;;5092902;28;19924;-70
2021/03/21 02:31:52;;;;;;;;;;;7.60;96.90;;;;;;5084589;28;20011;-70
2021/03/21 02:34:21;;;;;;;;;;;7.60;97.10;;;;;;5093103;28;19924;-70
2021/03/21 02:36:48;;;;;;;;;;;7.60;97.30;;;;;;5085665;28;20011;-70
2021/03/21 02:39:17;;;;;;;;;;;7.60;97.50;;;;;;5093309;28;19924;-70
2021/03/21 02:41:46;;;;;;;;;;;7.60;97.60;;;;;;5089350;28;19988;-70
2021/03/21 02:44:13;;;;;;;;;;;7.60;97.70;;;;;;5092871;28;19994;-70
2021/03/21 02:46:42;;;;;;;;;;;7.70;97.90;;;;;;5077408;28;19924;-70
2021/03/21 02:49:16;;;;;;;;;;;7.70;98.10;;;;;;5072712;28;19924;-71
2021/03/21 02:51:44;;;;;;;;;;;7.70;98.30;;;;;;5066439;28;20358;-70
2021/03/21 02:54:11;;;;;;;;;;;7.70;98.50;;;;;;5072832;28;19925;-70
2021/03/21 02:56:41;;;;;;;;;;;7.60;98.80;;;;;;5073197;28;19981;-71
2021/03/21 02:59:10;;;;;;;;;;;7.70;98.90;;;;;;5069405;28;19924;-70
2021/03/21 03:01:39;;;;;;;;;;;7.70;99.10;;;;;;5070932;28;19996;-70
2021/03/21 03:04:08;;;;;;;;;;;7.60;99.20;;;;;;5071351;28;19924;-70
2021/03/21 03:06:36;;;;;;;;;;;7.60;99.50;;;;;;5072022;28;20335;-70
2021/03/21 03:09:05;;;;;;;;;;;7.60;99.70;;;;;;5071486;28;19924;-72
2021/03/21 03:11:36;;;;;;;;;;;7.60;99.90;;;;;;5072036;28;20339;-70
2021/03/21 03:14:03;;;;;;;;;;;7.60;99.90;;;;;;5072967;28;20262;-70
2021/03/21 03:16:33;;;;;;;;;;;7.60;99.90;;;;;;5072416;28;19938;-70
2021/03/21 03:19:03;;;;;;;;;;;7.50;99.90;;;;;;5073247;28;20406;-71
2021/03/21 03:21:33;;;;;;;;;;;7.50;99.90;;;;;;5072749;28;19971;-71
2021/03/21 03:24:03;;;;;;;;;;;7.50;99.90;;;;;;5073204;28;20345;-71
2021/03/21 03:26:34;;;;;;;;;;;7.50;99.90;;;;;;5072612;28;19929;-71
2021/03/21 03:29:02;;;;;;;;;;;7.50;99.90;;;;;;5073295;28;20077;-70
2021/03/21 03:31:32;;;;;;;;;;;7.60;99.90;;;;;;5072465;28;20036;-70
2021/03/21 03:33:58;;;;;;;;;;;7.60;99.90;;;;;;5073068;28;19950;-70
2021/03/21 03:36:24;;;;;;;;;;;7.60;99.90;;;;;;5072570;28;20401;-71
2021/03/21 03:38:51;;;;;;;;;;;7.60;99.90;;;;;;5072790;28;19934;-71
2021/03/21 03:41:23;;;;;;;;;;;7.70;99.90;;;;;;5076564;28;20011;-72
2021/03/21 03:43:55;;;;;;;;;;;7.60;99.90;;;;;;5076910;28;19932;-70
2021/03/21 03:46:24;;;;;;;;;;;7.60;99.90;;;;;;5076207;28;19989;-72
2021/03/21 03:48:54;;;;;;;;;;;7.70;99.90;;;;;;5076871;28;20011;-69
2021/03/21 03:51:31;;;;;;;;;;;7.70;99.90;;;;;;5076302;28;20009;-71
2021/03/21 03:54:15;;;;;;;;;;;7.70;99.90;;;;;;5076679;28;20015;-71
2021/03/21 03:56:48;;;;;;;;;;;7.80;99.90;;;;;;5076091;28;19924;-71
2021/03/21 03:59:23;;;;;;;;;;;7.80;99.90;;;;;;5076564;28;19932;-71
2021/03/21 04:01:51;;;;;;;;;;;7.80;99.90;;;;;;5088364;28;20019;-71
2021/03/21 04:04:20;;;;;;;;;;;7.90;99.90;;;;;;5096824;28;20273;-71
2021/03/21 04:06:50;;;;;;;;;;;7.90;99.90;;;;;;5096148;28;19934;-71
2021/03/21 04:09:17;;;;;;;;;;;7.90;99.90;;;;;;5096857;28;20019;-70
2021/03/21 04:11:48;;;;;;;;;;;7.90;99.90;;;;;;5096274;28;19924;-71
2021/03/21 04:14:17;;;;;;;;;;;7.90;99.90;;;;;;5096858;28;20269;-71
2021/03/21 04:16:46;;;;;;;;;;;8.00;99.90;;;;;;5096064;28;19924;-69
2021/03/21 04:19:14;;;;;;;;;;;8.00;99.90;;;;;;5096502;28;19924;-69
2021/03/21 04:21:42;;;;;;;;;;;8.00;99.90;;;;;;5095965;28;20350;-70
2021/03/21 04:24:11;;;;;;;;;;;8.00;99.90;;;;;;5096280;28;19930;-70
2021/03/21 04:26:40;;;;;;;;;;;8.00;99.90;;;;;;5095959;28;20381;-69
2021/03/21 04:29:08;;;;;;;;;;;8.00;99.90;;;;;;5096252;28;19971;-70
2021/03/21 04:31:37;;;;;;;;;;;7.90;99.90;;;;;;5095844;28;20355;-70
2021/03/21 04:34:05;;;;;;;;;;;8.00;99.90;;;;;;5096249;28;19924;-70
2021/03/21 04:36:33;;;;;;;;;;;8.10;99.90;;;;;;5095771;28;19934;-71
2021/03/21 04:39:02;;;;;;;;;;;8.10;99.90;;;;;;5096216;28;19928;-71
2021/03/21 04:41:31;;;;;;;;;;;8.10;99.90;;;;;;5095778;28;19959;-70
2021/03/21 04:44:01;;;;;;;;;;;8.10;99.90;;;;;;5095836;28;20350;-71
2021/03/21 04:46:30;;;;;;;;;;;8.10;99.90;;;;;;5095382;28;20011;-71
2021/03/21 04:48:57;;;;;;;;;;;8.10;99.90;;;;;;5096049;28;19924;-70
2021/03/21 04:51:26;;;;;;;;;;;8.10;99.90;;;;;;5094695;28;20007;-70
2021/03/21 04:53:55;;;;;;;;;;;8.10;99.90;;;;;;5095448;28;19924;-70
2021/03/21 04:56:24;;;;;;;;;;;8.10;99.90;;;;;;5095711;28;19928;-70
2021/03/21 04:58:52;;;;;;;;;;;8.10;99.90;;;;;;5095113;28;19927;-70
2021/03/21 05:01:22;;;;;;;;;;;8.10;99.90;;;;;;5095671;28;20018;-70
2021/03/21 05:03:52;;;;;;;;;;;8.10;99.90;;;;;;5095327;28;20077;-70
2021/03/21 05:06:22;;;;;;;;;;;8.10;99.90;;;;;;5095637;28;20378;-70
2021/03/21 05:08:52;;;;;;;;;;;8.20;99.90;;;;;;5095117;28;20025;-70
2021/03/21 05:11:22;;;;;;;;;;;8.10;99.90;;;;;;5095493;28;20010;-70
2021/03/21 05:13:52;;;;;;;;;;;8.10;99.90;;;;;;5095070;28;19924;-71
2021/03/21 05:16:21;;;;;;;;;;;8.10;99.90;;;;;;5095179;28;19932;-71
2021/03/21 05:18:51;;;;;;;;;;;8.20;99.90;;;;;;5094968;28;20251;-71
2021/03/21 05:21:21;;;;;;;;;;;8.10;99.90;;;;;;5095280;28;19935;-70
2021/03/21 05:23:52;;;;;;;;;;;8.20;99.90;;;;;;5094812;28;20351;-71
2021/03/21 05:26:22;;;;;;;;;;;8.20;99.90;;;;;;5095184;28;19935;-71
2021/03/21 05:28:51;;;;;;;;;;;8.20;99.90;;;;;;5094751;28;20365;-70
2021/03/21 05:31:18;;;;;;;;;;;8.20;99.90;;;;;;5095106;28;19976;-70
2021/03/21 05:33:45;;;;;;;;;;;8.20;99.90;;;;;;5094585;28;20015;-71
2021/03/21 05:36:14;;;;;;;;;;;8.20;99.90;;;;;;5094813;28;19967;-71
2021/03/21 05:38:42;;;;;;;;;;;8.30;99.90;;;;;;5094535;28;19928;-71
2021/03/21 05:41:27;;;;;;;;;;;8.30;99.90;;;;;;5095131;28;20069;-70
2021/03/21 05:44:12;;;;;;;;;;;8.30;99.90;;;;;;5094134;28;19947;-71
2021/03/21 05:46:52;;;;;;;;;;;8.30;99.90;;;;;;5094471;28;19931;-71
2021/03/21 05:49:40;;;;;;;;;;;8.30;99.90;;;;;;5094866;28;19932;-71
2021/03/21 05:52:22;;;;;;;;;;;8.40;99.90;;;;;;5094516;28;19972;-72
2021/03/21 05:54:56;;;;;;;;;;;8.40;99.90;;;;;;5094221;28;19935;-70
2021/03/21 05:57:37;;;;;;;;;;;8.50;99.90;;;;;;5094580;28;19924;-71
2021/03/21 06:00:17;;;;;;;;;;;8.50;99.90;;;;;;5094229;28;19973;-71
2021/03/21 06:03:02;;;;;;;;;;;8.60;99.90;;;;;;5093952;28;19924;-72
2021/03/21 06:05:48;;;;;;;;;;;8.50;99.90;;;;;;5094729;28;19935;-70
2021/03/21 06:08:30;;;;;;;;;;;8.50;99.90;;;;;;5094115;28;19932;-71
2021/03/21 06:11:02;;;;;;;;;;;8.50;99.90;;;;;;5093978;28;20033;-71
2021/03/21 06:13:32;;;;;;;;;;;8.60;99.90;;;;;;5094446;28;20024;-71
2021/03/21 06:16:06;;;;;;;;;;;8.60;99.90;;;;;;5093840;28;19924;-71
2021/03/21 06:18:40;;;;;;;;;;;8.60;99.90;;;;;;5094151;28;20397;-71
2021/03/21 06:21:28;;;;;;;;;;;8.60;99.90;;;;;;5093849;28;20026;-71
2021/03/21 06:24:21;;;;;;;;;;;8.60;99.90;;;;;;5093726;28;19924;-71
2021/03/21 06:26:54;;;;;;;;;;;8.60;99.90;;;;;;5094032;28;19931;-71
2021/03/21 06:29:32;;;;;;;;;;;8.60;99.90;;;;;;5093706;28;20015;-71
2021/03/21 06:32:16;;;;;;;;;;;8.70;99.90;;;;;;5093750;28;20343;-72
2021/03/21 06:34:44;;;;;;;;;;;8.70;99.90;;;;;;5094071;28;19924;-72
2021/03/21 06:37:26;;;;;;;;;;;8.70;99.90;;;;;;5093664;28;20280;-72
2021/03/21 06:40:01;;;;;;;;;;;8.70;99.90;;;;;;5093821;28;19939;-72
2021/03/21 06:42:57;;;;;;;;;;;8.70;99.90;;;;;;5093414;28;20424;-71
2021/03/21 06:45:43;;;;;;;;;;;8.70;99.90;;;;;;5093092;28;19924;-71
2021/03/21 06:48:16;;;;;;;;;;;8.80;99.90;;;;;;5093138;28;19940;-71
2021/03/21 06:51:10;;;;;;;;;;;8.70;99.90;;;;;;5093713;28;19934;-71
2021/03/21 06:53:42;;;;;;;;;;;8.70;99.90;;;;;;5057267;28;19988;-71
2021/03/21 06:56:20;;;;;;;;;;;8.70;99.90;;;;;;5093579;28;19935;-72
2021/03/21 06:59:00;;;;;;;;;;;8.70;99.90;;;;;;5093682;28;20281;-72
2021/03/21 07:01:28;;;;;;;;;;;8.80;99.90;;;;;;5093217;28;20021;-71
2021/03/21 07:04:18;;;;;;;;;;;8.80;99.90;;;;;;5093609;28;20355;-72
2021/03/21 07:07:17;;;;;;;;;;;8.80;99.90;;;;;;5093128;28;19930;-72
2021/03/21 07:10:06;;;;;;;;;;;8.80;99.90;;;;;;5093161;28;19987;-71
2021/03/21 07:12:43;;;;;;;;;;;8.80;99.90;;;;;;5093116;28;20240;-71
2021/03/21 07:15:19;;;;;;;;;;;8.80;99.90;;;;;;5092849;28;19928;-72
2021/03/21 07:18:04;;;;;;;;;;;8.90;99.90;;;;;;5092912;28;19924;-72
2021/03/21 07:20:58;;;;;;;;;;;8.90;99.90;;;;;;5092826;28;19934;-73
2021/03/21 07:23:49;;;;;;;;;;;9.00;99.90;;;;;;5092759;28;19931;-72
2021/03/21 07:26:26;;;;;;;;;;;9.00;99.90;;;;;;5093312;28;20365;-71
2021/03/21 07:29:07;;;;;;;;;;;9.00;99.90;;;;;;5093136;28;20959;-71
2021/03/21 07:31:41;;;;;;;;;;;9.00;99.90;;;;;;5090207;28;19925;-71
2021/03/21 07:34:20;;;;;;;;;;;8.90;99.90;;;;;;5093302;28;20018;-71
2021/03/21 07:36:50;;;;;;;;;;;8.90;99.90;;;;;;5092618;28;19924;-71
2021/03/21 07:39:20;;;;;;;;;;;8.90;99.90;;;;;;5093063;28;19924;-71
2021/03/21 07:42:03;;;;;;;;;;;8.80;99.90;;;;;;5092758;28;20003;-71
2021/03/21 07:44:43;;;;;;;;;;;8.90;99.90;;;;;;5093102;28;19928;-71
2021/03/21 07:47:21;;;;;;;;;;;8.90;99.90;;;;;;5093209;28;19928;-71
2021/03/21 07:50:05;;;;;;;;;;;9.00;99.90;;;;;;5093150;28;19935;-71
2021/03/21 07:52:41;;;;;;;;;;;9.00;99.90;;;;;;5061767;28;19924;-71
2021/03/21 07:55:11;;;;;;;;;;;9.10;99.90;;;;;;5093277;28;19931;-71
2021/03/21 07:57:51;;;;;;;;;;;9.20;99.90;;;;;;5092727;28;19924;-71
2021/03/21 08:00:19;;;;;;;;;;;9.10;99.90;;;;;;5092634;28;19928;-72
2021/03/21 08:02:48;;;;;;;;;;;9.20;99.90;;;;;;5093021;28;19930;-72
2021/03/21 08:05:16;;;;;;;;;;;9.10;99.90;;;;;;5092458;28;20377;-73
2021/03/21 08:07:45;;;;;;;;;;;9.10;99.90;;;;;;5092979;28;19934;-72
2021/03/21 08:10:17;;;;;;;;;;;9.20;99.90;;;;;;5092933;28;19924;-72
2021/03/21 08:12:47;;;;;;;;;;;9.10;99.90;;;;;;5092663;28;20018;-73
2021/03/21 08:15:17;;;;;;;;;;;9.10;99.90;;;;;;5092796;28;19934;-72
2021/03/21 08:17:47;;;;;;;;;;;9.20;99.90;;;;;;5092232;28;19928;-72
2021/03/21 08:20:17;;;;;;;;;;;9.20;99.90;;;;;;5092841;28;19924;-72
2021/03/21 08:22:43;;;;;;;;;;;9.30;99.90;;;;;;5092327;28;19934;-72
2021/03/21 08:25:24;;;;;;;;;;;9.40;99.90;;;;;;5093165;28;19936;-72
2021/03/21 08:27:53;;;;;;;;;;;9.40;99.90;;;;;;5095960;28;20733;-72
2021/03/21 08:30:21;;;;;;;;;;;9.40;99.90;;;;;;5096408;28;19976;-72
2021/03/21 08:32:52;;;;;;;;;;;9.50;99.90;;;;;;5095874;28;19924;-72
2021/03/21 08:35:19;;;;;;;;;;;9.40;99.90;;;;;;5096112;28;19955;-72
2021/03/21 08:37:46;;;;;;;;;;;9.50;99.90;;;;;;5095731;28;19974;-72
2021/03/21 08:40:17;;;;;;;;;;;9.50;99.90;;;;;;5096167;28;19956;-72
2021/03/21 08:42:45;;;;;;;;;;;9.50;99.90;;;;;;5095478;28;19924;-72
2021/03/21 08:45:23;;;;;;;;;;;9.50;99.90;;;;;;5096064;28;19924;-72
2021/03/21 08:48:01;;;;;;;;;;;9.50;99.90;;;;;;5095635;28;19924;-72
2021/03/21 08:50:31;;;;;;;;;;;9.50;99.90;;;;;;5095484;28;19924;-72
2021/03/21 08:52:57;;;;;;;;;;;9.40;99.90;;;;;;5095969;28;19924;-72
2021/03/21 08:55:25;;;;;;;;;;;9.50;99.90;;;;;;5096028;28;20353;-71
2021/03/21 08:57:52;;;;;;;;;;;9.50;99.90;;;;;;5095546;28;19934;-71
2021/03/21 09:00:29;;;;;;;;;;;9.50;99.90;;;;;;5095974;28;20011;-71
2021/03/21 09:02:55;;;;;;;;;;;9.50;99.90;;;;;;5095591;28;21182;-71
2021/03/21 09:05:23;;;;;;;;;;;9.50;99.90;;;;;;5095612;28;19924;-71
2021/03/21 09:08:02;;;;;;;;;;;9.40;99.90;;;;;;5095086;28;20405;-72
2021/03/21 09:10:30;;;;;;;;;;;9.50;99.90;;;;;;5095742;28;20358;-71
2021/03/21 09:13:16;;;;;;;;;;;9.50;99.90;;;;;;5095104;28;20338;-71
2021/03/21 09:15:43;;;;;;;;;;;9.50;99.90;;;;;;5095035;28;19924;-72
2021/03/21 09:18:12;;;;;;;;;;;9.60;99.90;;;;;;5095427;28;19934;-71
2021/03/21 09:20:48;;;;;;;;;;;9.60;99.90;;;;;;5095014;28;19935;-70
2021/03/21 09:23:32;;;;;;;;;;;9.60;99.90;;;;;;5095103;28;19931;-71
2021/03/21 09:25:59;;;;;;;;;;;9.70;99.90;;;;;;5094900;28;19935;-71
2021/03/21 09:28:32;;;;;;;;;;;9.70;99.90;;;;;;5095288;28;19959;-70
2021/03/21 09:31:01;;;;;;;;;;;9.70;99.90;;;;;;5094694;28;19924;-71
2021/03/21 09:33:29;;;;;;;;;;;9.70;99.90;;;;;;5095058;28;19924;-71
2021/03/21 09:35:58;;;;;;;;;;;9.70;99.90;;;;;;5094774;28;19967;-71
2021/03/21 09:38:26;;;;;;;;;;;9.70;99.90;;;;;;5094308;28;20007;-71
2021/03/21 09:40:53;;;;;;;;;;;9.60;99.90;;;;;;5094391;28;19935;-71
2021/03/21 09:43:21;;;;;;;;;;;9.60;99.90;;;;;;5094728;28;20014;-72
2021/03/21 09:45:51;;;;;;;;;;;9.60;99.90;;;;;;5094333;28;19928;-71
2021/03/21 09:48:25;;;;;;;;;;;9.60;99.90;;;;;;5094706;28;19981;-70
2021/03/21 09:50:59;;;;;;;;;;;9.60;99.90;;;;;;5094085;28;19955;-71
2021/03/21 09:53:41;;;;;;;;;;;9.50;99.90;;;;;;5094074;28;20274;-71
2021/03/21 09:56:13;;;;;;;;;;;9.50;99.90;;;;;;5094387;28;19924;-71
2021/03/21 09:58:42;;;;;;;;;;;9.60;99.90;;;;;;5094701;28;19927;-71
2021/03/21 10:01:15;;;;;;;;;;;9.60;99.90;;;;;;5094162;28;19943;-71
2021/03/21 10:03:44;;;;;;;;;;;9.60;99.90;;;;;;5094413;28;19924;-71
2021/03/21 10:06:17;;;;;;;;;;;9.60;99.90;;;;;;5082154;28;19924;-71
2021/03/21 10:08:58;;;;;;;;;;;9.50;99.90;;;;;;5074366;28;19986;-71
2021/03/21 10:11:27;;;;;;;;;;;9.60;99.90;;;;;;5072759;28;19979;-71
2021/03/21 10:13:54;;;;;;;;;;;9.60;99.90;;;;;;5073927;28;20703;-70
2021/03/21 10:16:30;;;;;;;;;;;9.70;99.90;;;;;;5073961;28;19924;-70
2021/03/21 10:18:59;;;;;;;;;;;9.70;99.90;;;;;;5073861;28;20671;-71
2021/03/21 10:21:29;;;;;;;;;;;9.70;99.90;;;;;;5074157;28;20310;-71
2021/03/21 10:24:13;;;;;;;;;;;9.80;99.90;;;;;;5073446;28;19924;-71
2021/03/21 10:26:54;;;;;;;;;;;9.80;99.90;;;;;;5073407;28;20270;-70
2021/03/21 10:29:35;;;;;;;;;;;9.80;99.90;;;;;;5073504;28;19936;-71
2021/03/21 10:32:18;;;;;;;;;;;9.90;99.90;;;;;;5073219;28;19924;-72
2021/03/21 10:34:46;;;;;;;;;;;9.90;99.90;;;;;;5073254;28;20360;-71
2021/03/21 10:37:12;;;;;;;;;;;9.90;99.90;;;;;;5073590;28;19924;-71
2021/03/21 10:39:55;;;;;;;;;;;10.00;99.90;;;;;;5072281;28;19924;-72
2021/03/21 10:42:41;;;;;;;;;;;10.00;99.90;;;;;;5073719;28;19925;-71
2021/03/21 10:45:09;;;;;;;;;;;10.00;99.90;;;;;;5073173;28;19924;-71
2021/03/21 10:47:59;;;;;;;;;;;9.90;99.90;;;;;;5073390;28;19932;-71
2021/03/21 10:50:43;;;;;;;;;;;9.80;99.90;;;;;;5057308;28;19925;-71
2021/03/21 10:53:17;;;;;;;;;;;9.80;99.90;;;;;;5073510;28;19939;-71
2021/03/21 10:55:59;;;;;;;;;;;9.80;99.90;;;;;;5073230;28;19986;-70
2021/03/21 10:58:31;;;;;;;;;;;9.70;99.90;;;;;;5073139;28;19924;-71
2021/03/21 11:01:16;;;;;;;;;;;9.70;99.90;;;;;;5073372;28;19932;-71
2021/03/21 11:03:42;;;;;;;;;;;9.60;99.90;;;;;;5073059;28;19925;-71
2021/03/21 11:06:13;;;;;;;;;;;9.60;99.90;;;;;;5073429;28;19951;-70
2021/03/21 11:08:40;;;;;;;;;;;9.50;99.90;;;;;;5072867;28;19940;-71
2021/03/21 11:11:14;;;;;;;;;;;9.50;99.90;;;;;;5073436;28;19931;-71
2021/03/21 11:13:41;;;;;;;;;;;9.50;99.90;;;;;;5072958;28;19931;-71
2021/03/21 11:16:09;;;;;;;;;;;9.50;99.90;;;;;;5073394;28;19925;-71
2021/03/21 11:18:35;;;;;;;;;;;9.50;99.90;;;;;;5072949;28;19924;-71
2021/03/21 11:21:03;;;;;;;;;;;9.50;99.90;;;;;;5073612;28;20247;-71
2021/03/21 11:23:30;;;;;;;;;;;9.50;99.90;;;;;;5072815;28;19929;-70
2021/03/21 11:26:00;;;;;;;;;;;9.40;99.80;;;;;;5073364;28;20298;-70
2021/03/21 11:28:36;;;;;;;;;;;9.40;99.80;;;;;;5073085;28;19925;-71
2021/03/21 11:31:04;;;;;;;;;;;9.40;99.90;;;;;;5073132;28;20381;-71
2021/03/21 11:33:33;;;;;;;;;;;9.40;99.80;;;;;;5072869;28;19970;-69
2021/03/21 11:36:18;;;;;;;;;;;9.40;99.60;;;;;;5073010;28;19931;-70
2021/03/21 11:38:45;;;;;;;;;;;9.40;99.60;;;;;;5072820;28;20015;-70
2021/03/21 11:41:39;;;;;;;;;;;9.40;99.60;;;;;;5073144;28;19977;-71
2021/03/21 11:44:10;;;;;;;;;;;9.40;99.70;;;;;;5048667;28;19925;-71
2021/03/21 11:46:36;;;;;;;;;;;9.40;99.10;;;;;;5072598;28;19936;-71
2021/03/21 11:49:03;;;;;;;;;;;9.50;99.20;;;;;;5072992;28;19924;-71
2021/03/21 11:51:29;;;;;;;;;;;9.50;99.10;;;;;;5072563;28;19932;-71
2021/03/21 11:53:56;;;;;;;;;;;9.60;98.90;;;;;;5073039;28;19925;-71
2021/03/21 11:56:25;;;;;;;;;;;9.70;98.80;;;;;;5072650;28;19936;-71
2021/03/21 11:58:53;;;;;;;;;;;9.70;98.70;;;;;;5072764;28;19924;-70
2021/03/21 12:01:23;;;;;;;;;;;9.80;98.90;;;;;;5074430;28;20418;-71
2021/03/21 12:03:51;;;;;;;;;;;9.80;98.60;;;;;;5076749;28;19928;-71
2021/03/21 12:06:22;;;;;;;;;;;9.90;98.50;;;;;;5076145;28;19971;-70
2021/03/21 12:08:49;;;;;;;;;;;9.90;98.10;;;;;;5076657;28;19924;-69
2021/03/21 12:11:17;;;;;;;;;;;10.00;97.40;;;;;;5076317;28;19978;-70
2021/03/21 12:13:44;;;;;;;;;;;10.00;97.20;;;;;;5076388;28;19924;-70
2021/03/21 12:16:25;;;;;;;;;;;10.20;96.80;;;;;;5076257;28;19981;-70
2021/03/21 12:18:54;;;;;;;;;;;10.20;96.70;;;;;;5067845;28;19990;-70
2021/03/21 12:21:20;;;;;;;;;;;10.30;96.70;;;;;;5076041;28;19924;-70
2021/03/21 12:23:51;;;;;;;;;;;10.40;96.70;;;;;;5076428;28;19924;-70
2021/03/21 12:26:19;;;;;;;;;;;10.40;96.70;;;;;;5075513;28;19929;-71
2021/03/21 12:28:56;;;;;;;;;;;10.50;96.40;;;;;;5076304;28;19985;-71
2021/03/21 12:31:26;;;;;;;;;;;10.60;96.00;;;;;;5076234;28;20239;-71
2021/03/21 12:33:52;;;;;;;;;;;10.50;95.60;;;;;;5076200;28;20358;-70
2021/03/21 12:36:26;;;;;;;;;;;10.60;95.70;;;;;;5075616;28;19936;-69
2021/03/21 12:38:56;;;;;;;;;;;10.60;95.60;;;;;;5076090;28;19935;-70
2021/03/21 12:41:30;;;;;;;;;;;10.60;95.60;;;;;;5075855;28;19998;-70
2021/03/21 12:44:13;;;;;;;;;;;10.60;95.80;;;;;;5076044;28;19924;-70
2021/03/21 12:46:41;;;;;;;;;;;10.80;96.00;;;;;;5076254;28;19924;-71
2021/03/21 12:49:11;;;;;;;;;;;10.90;96.00;;;;;;5075555;28;20714;-71
2021/03/21 12:51:38;;;;;;;;;;;11.00;95.50;;;;;;5075780;28;19924;-70
2021/03/21 12:54:05;;;;;;;;;;;11.10;95.10;;;;;;5075423;28;19932;-71
2021/03/21 12:56:32;;;;;;;;;;;11.10;94.90;;;;;;5075309;28;19932;-70
2021/03/21 12:58:58;;;;;;;;;;;11.20;94.80;;;;;;5075340;28;19924;-69
2021/03/21 13:01:24;;;;;;;;;;;11.20;94.30;;;;;;5075739;28;19924;-70
2021/03/21 13:03:51;;;;;;;;;;;11.30;94.50;;;;;;5074358;28;19924;-71
2021/03/21 13:06:17;;;;;;;;;;;11.30;94.30;;;;;;5075329;28;19939;-71
2021/03/21 13:08:44;;;;;;;;;;;11.30;94.50;;;;;;5075467;28;19924;-70
2021/03/21 13:11:11;;;;;;;;;;;11.30;94.20;;;;;;5075245;28;20014;-70
2021/03/21 13:13:38;;;;;;;;;;;11.30;93.60;;;;;;5074486;28;19935;-71
2021/03/21 13:16:04;;;;;;;;;;;11.40;93.50;;;;;;5074734;28;20412;-71
2021/03/21 13:18:31;;;;;;;;;;;11.50;93.20;;;;;;5075320;28;19936;-71
2021/03/21 13:20:59;;;;;;;;;;;11.60;92.60;;;;;;5075098;28;19990;-71
2021/03/21 13:23:25;;;;;;;;;;;11.60;92.60;;;;;;5075276;28;19989;-71
2021/03/21 13:25:52;;;;;;;;;;;11.60;93.00;;;;;;5075060;28;19931;-71
2021/03/21 13:28:19;;;;;;;;;;;11.80;92.50;;;;;;5075316;28;19932;-71
2021/03/21 13:30:46;;;;;;;;;;;11.80;92.30;;;;;;5075279;28;20055;-70
2021/03/21 13:33:14;;;;;;;;;;;11.80;91.80;;;;;;5074736;28;19928;-70
2021/03/21 13:35:40;;;;;;;;;;;11.90;91.20;;;;;;5075120;28;19924;-69
2021/03/21 13:38:07;;;;;;;;;;;11.90;91.00;;;;;;5074494;28;20365;-70
2021/03/21 13:40:34;;;;;;;;;;;12.00;90.60;;;;;;5075086;28;20259;-69
2021/03/21 13:43:02;;;;;;;;;;;12.00;90.30;;;;;;5074396;28;19924;-70
2021/03/21 13:45:29;;;;;;;;;;;12.00;89.70;;;;;;5074588;28;19925;-70
2021/03/21 13:47:58;;;;;;;;;;;12.10;88.00;;;;;;5074271;28;19924;-70
2021/03/21 13:50:25;;;;;;;;;;;12.20;86.70;;;;;;5074734;28;19925;-69
2021/03/21 13:52:58;;;;;;;;;;;12.20;85.80;;;;;;5074362;28;20258;-69
2021/03/21 13:55:27;;;;;;;;;;;12.20;84.80;;;;;;5074693;28;19924;-69
2021/03/21 13:57:54;;;;;;;;;;;12.20;84.70;;;;;;5070417;28;20011;-70
2021/03/21 14:00:22;;;;;;;;;;;12.20;84.70;;;;;;5074803;28;20309;-69
2021/03/21 14:02:52;;;;;;;;;;;12.20;84.50;;;;;;5074383;28;19928;-70
2021/03/21 14:05:20;;;;;;;;;;;12.30;84.00;;;;;;5074096;28;20003;-69
2021/03/21 14:07:46;;;;;;;;;;;12.30;83.60;;;;;;5074278;28;20259;-70
2021/03/21 14:10:13;;;;;;;;;;;12.30;83.60;;;;;;5074012;28;19924;-70
2021/03/21 14:12:40;;;;;;;;;;;12.30;82.90;;;;;;5074325;28;20389;-70
2021/03/21 14:15:07;;;;;;;;;;;12.30;82.90;;;;;;5073900;28;19925;-69
2021/03/21 14:17:35;;;;;;;;;;;12.30;80.80;;;;;;5074332;28;19924;-70
2021/03/21 14:20:01;;;;;;;;;;;12.30;79.40;;;;;;5073644;28;19935;-69
2021/03/21 14:22:28;;;;;;;;;;;12.30;79.20;;;;;;5074264;28;19925;-68
2021/03/21 14:24:54;;;;;;;;;;;12.40;77.40;;;;;;5074073;28;19935;-70
2021/03/21 14:27:21;;;;;;;;;;;12.40;76.50;;;;;;5073554;28;20883;-70
2021/03/21 14:29:47;;;;;;;;;;;12.30;75.50;;;;;;5074042;28;19928;-70
2021/03/21 14:32:13;;;;;;;;;;;12.30;75.20;;;;;;5073480;28;19924;-69
2021/03/21 14:34:41;;;;;;;;;;;12.30;74.50;;;;;;5074072;28;19947;-70
2021/03/21 14:37:07;;;;;;;;;;;12.30;72.90;;;;;;5073409;28;19932;-70
2021/03/21 14:39:34;;;;;;;;;;;12.40;73.60;;;;;;5073883;28;19932;-70
2021/03/21 14:42:00;;;;;;;;;;;12.50;73.90;;;;;;5073363;28;20232;-70
2021/03/21 14:44:26;;;;;;;;;;;12.50;73.60;;;;;;5073709;28;19947;-70
2021/03/21 14:46:53;;;;;;;;;;;12.50;72.60;;;;;;5073759;28;19936;-70
2021/03/21 14:49:19;;;;;;;;;;;12.50;71.90;;;;;;5073112;28;19932;-70
2021/03/21 14:51:46;;;;;;;;;;;12.50;71.70;;;;;;5073651;28;20006;-70